Pacifica, CA (94044)

3:37 PM PDT on August 02, 2015 (GMT -0700)
Sharp Park | | Change Station
CLOSE
Current Station
Personal Weather Station
Location: Pacifica, CA
Elevation: 189 ft
Nearby Weather Stations

Elev 189 ft 37.64 °N, 122.49 °W | Updated 5 minutes ago

Mostly Cloudy
Mostly Cloudy
70.2 °F
Feels Like 73 °F
N
3.0
Wind Variable Wind from WSW
Gusts 7.0 mph

Today
High -- | Low -- °F
--% Chance of Precip.
Yesterday
High -- | Low -- °F
Precip. -- in
6:14 AM 8:17 PM
Waning Gibbous, 91% visible
Pressure 29.95 in
Visibility 10.0 miles
Clouds Few 1600 ft
Mostly Cloudy 20000 ft
Heat Index 73 °F
Dew Point 61 °F
Humidity 72%
Rainfall 0.00 in
Snow Depth Not available.
UV 5 out of 12
Pollen 4.20 out of 12
Air Quality Not available.
Flu Activity Not available.
METAR KSFO 022156Z 28016KT 10SM FEW016 BKN200 22/13 A2995 RMK AO2 SLP142 T02170133

More Conditions Fewer Conditions

Pressure 29.95 in
Visibility 10.0 miles
Clouds Few 1600 ft
Mostly Cloudy 20000 ft
Heat Index 73 °F
Dew Point 61 °F
Humidity 72%
Rainfall 0.00 in
Snow Depth Not available.
UV 5 out of 12
Pollen 4.20 out of 12
Air Quality Not available.
Flu Activity Not available.
METAR KSFO 022156Z 28016KT 10SM FEW016 BKN200 22/13 A2995 RMK AO2 SLP142 T02170133

More Conditions Fewer Conditions

10-Day Weather Forecast

×

Almanac

Astronomy

Aug. 02, 2015 Rise Set
Actual Time
Civil Twilight
Nautical Twilight
Astronomical Twilight
Moon
Length of Visible Light
Length of Day
Tomorrow will be .
, % of the Moon is Illuminated

Today's Extremes

State Highs State Lows

Community

WunderPhotos

Upload Photos

1,843,400 photos uploaded!

WunderBlogs® & News

Nearby

Air Quality

  Air Quality AQ Index Pollutant
Not available.

Snow Depth

Station Depth Elevation

Earthquake Activity

City Distance Mag. Time & Date
Minimum magnitude displayed is 2.5.

Coastal Water Temperatures

Place Temperature

Stations

Nearby Weather Stations

Station Location Temp. Windchill Dew Point Humidity Wind Precip. Elev Updated Type